createdAt,value
2023-01-11T00:02:29.972Z,14.46
2023-01-11T00:07:33.435Z,14.65
2023-01-11T00:12:36.764Z,13.99
2023-01-11T00:17:42.208Z,14.37
2023-01-11T00:22:45.696Z,14.10
2023-01-11T00:27:50.307Z,14.06
2023-01-11T00:32:57.983Z,14.38
2023-01-11T00:38:01.430Z,14.61
2023-01-11T00:43:22.437Z,14.75
2023-01-11T00:48:27.103Z,12.95
2023-01-11T00:53:30.365Z,13.95
2023-01-11T00:58:33.646Z,12.97
2023-01-11T01:03:38.274Z,14.53
2023-01-11T01:08:41.578Z,14.45
2023-01-11T01:14:03.342Z,14.61
2023-01-11T01:19:08.046Z,13.39
2023-01-11T01:24:11.462Z,14.33
2023-01-11T01:29:15.896Z,14.39
2023-01-11T01:34:20.616Z,13.95
2023-01-11T01:39:23.908Z,13.18
2023-01-11T01:44:56.928Z,14.03
2023-01-11T01:50:04.708Z,13.28
2023-01-11T01:55:12.102Z,13.03
2023-01-11T02:00:15.952Z,13.94
2023-01-11T02:05:20.880Z,13.93
2023-01-11T02:10:27.234Z,13.88
2023-01-11T02:15:30.863Z,14.19
2023-01-11T02:20:46.398Z,14.29
2023-01-11T02:26:03.483Z,14.30
2023-01-11T02:31:12.697Z,13.81
2023-01-11T02:36:23.215Z,13.98
2023-01-11T02:41:50.765Z,13.88
2023-01-11T02:46:57.624Z,14.08
2023-01-11T02:52:07.075Z,13.92
2023-01-11T02:57:10.854Z,13.01
2023-01-11T03:02:16.854Z,13.64
2023-01-11T03:07:33.994Z,13.92
2023-01-11T03:12:55.668Z,14.04
2023-01-11T03:18:07.481Z,14.33
2023-01-11T03:23:16.786Z,14.87
2023-01-11T03:28:27.034Z,14.12
2023-01-11T03:33:37.036Z,14.52
2023-01-11T03:38:43.169Z,14.62
2023-01-11T03:43:47.812Z,14.32
2023-01-11T03:48:55.237Z,15.53
2023-01-11T03:54:00.245Z,15.36
2023-01-11T03:59:03.996Z,15.79
2023-01-11T04:04:08.734Z,15.04
2023-01-11T04:09:12.112Z,15.91
2023-01-11T04:14:15.394Z,16.16
2023-01-11T04:19:20.065Z,15.95
2023-01-11T04:24:23.612Z,16.26
2023-01-11T04:29:26.906Z,15.96
2023-01-11T04:34:31.577Z,16.30
2023-01-11T04:39:34.858Z,16.24
2023-01-11T04:44:38.122Z,16.04
2023-01-11T04:49:42.888Z,16.47
2023-01-11T04:54:46.292Z,16.27
2023-01-11T04:59:49.855Z,16.31
2023-01-11T05:04:54.562Z,16.28
2023-01-11T05:09:57.910Z,16.35
2023-01-11T05:15:01.199Z,16.45
2023-01-11T05:20:08.164Z,16.43
2023-01-11T05:25:11.460Z,16.54
2023-01-11T05:30:15.468Z,16.32
2023-01-11T05:35:20.211Z,16.73
2023-01-11T05:40:23.643Z,15.38
2023-01-11T05:45:29.826Z,16.27
2023-01-11T05:50:34.596Z,15.84
2023-01-11T05:55:38.010Z,16.40
2023-01-11T06:00:41.559Z,16.20
2023-01-11T06:05:46.796Z,16.68
2023-01-11T06:10:52.290Z,16.60
2023-01-11T06:15:56.348Z,16.24
2023-01-11T06:21:01.775Z,16.25
2023-01-11T06:26:06.482Z,15.60
2023-01-11T06:31:10.034Z,15.61
2023-01-11T06:36:15.756Z,16.35
2023-01-11T06:41:19.110Z,16.37
2023-01-11T06:46:22.526Z,16.20
2023-01-11T06:51:27.245Z,16.70
2023-01-11T06:56:30.587Z,16.73
2023-01-11T07:01:34.601Z,16.40
2023-01-11T07:06:39.452Z,15.93
2023-01-11T07:11:42.874Z,16.47
2023-01-11T07:16:46.194Z,15.66
2023-01-11T07:21:50.860Z,16.21
2023-01-11T07:26:56.065Z,15.97
2023-01-11T07:31:59.339Z,15.94
2023-01-11T07:37:04.061Z,16.11
2023-01-11T07:42:24.903Z,16.09
2023-01-11T07:47:28.600Z,16.21
2023-01-11T07:52:33.363Z,15.76
2023-01-11T07:57:36.847Z,16.48
2023-01-11T08:02:40.683Z,16.16
2023-01-11T08:07:45.555Z,16.16
2023-01-11T08:13:07.597Z,16.26
2023-01-11T08:18:11.379Z,15.82
2023-01-11T08:23:16.108Z,16.76
2023-01-11T08:28:19.509Z,16.10
2023-01-11T08:33:23.076Z,16.84
2023-01-11T08:38:27.826Z,16.42
2023-01-11T08:43:31.710Z,16.81
2023-01-11T08:48:35.107Z,16.63
2023-01-11T08:53:39.796Z,17.11
2023-01-11T08:58:43.170Z,17.17
2023-01-11T09:03:46.655Z,17.60
2023-01-11T09:08:51.336Z,17.34
2023-01-11T09:13:54.721Z,17.18
2023-01-11T09:18:58.081Z,16.80
2023-01-11T09:24:03.107Z,17.51
2023-01-11T09:29:06.534Z,17.57
2023-01-11T09:34:12.443Z,16.81
2023-01-11T09:39:20.489Z,17.14
2023-01-11T09:44:26.774Z,16.83
2023-01-11T09:49:34.470Z,17.33
2023-01-11T09:54:39.144Z,16.72
2023-01-11T09:59:50.440Z,16.70
2023-01-11T10:05:09.626Z,17.63
2023-01-11T10:18:33.348Z,17.95
2023-01-11T10:21:29.149Z,17.04
2023-01-11T10:26:37.123Z,17.12
2023-01-11T10:31:55.700Z,17.29
2023-01-11T10:37:18.654Z,17.62
2023-01-11T10:42:24.990Z,17.59
2023-01-11T10:47:32.476Z,18.09
2023-01-11T10:52:41.566Z,18.40
2023-01-11T10:58:01.454Z,18.58
2023-01-11T11:03:45.870Z,18.07
2023-01-11T11:08:54.569Z,18.15
2023-01-11T11:14:03.355Z,18.47
2023-01-11T11:19:10.179Z,17.86
2023-01-11T11:24:19.216Z,17.77
2023-01-11T11:29:30.452Z,18.06
2023-01-11T11:34:33.933Z,18.08
2023-01-11T11:39:38.044Z,17.66
2023-01-11T11:44:42.747Z,17.63
2023-01-11T11:49:46.639Z,18.12
2023-01-11T11:54:52.766Z,18.52
2023-01-11T12:00:05.019Z,18.18
2023-01-11T12:05:10.865Z,18.57
2023-01-11T12:10:16.994Z,18.06
2023-01-11T12:15:24.213Z,18.21
2023-01-11T12:20:30.015Z,17.90
2023-01-11T12:25:33.540Z,18.07
2023-01-11T12:30:45.780Z,18.21
2023-01-11T12:35:55.795Z,17.93
2023-01-11T12:41:10.445Z,18.38
2023-01-11T12:46:22.541Z,18.57
2023-01-11T12:51:39.559Z,18.52
2023-01-11T12:56:51.238Z,18.73
2023-01-11T13:02:01.631Z,18.50
2023-01-11T13:07:12.718Z,18.35
2023-01-11T13:12:20.378Z,18.24
2023-01-11T13:17:29.642Z,18.45
2023-01-11T13:22:36.610Z,18.81
2023-01-11T13:27:40.716Z,18.48
2023-01-11T13:32:52.264Z,18.03
2023-01-11T13:38:01.148Z,18.68
2023-01-11T13:43:07.916Z,19.09
2023-01-11T13:48:17.847Z,19.16
2023-01-11T13:53:26.352Z,18.56
2023-01-11T13:58:36.885Z,18.71
2023-01-11T14:03:46.308Z,18.60
2023-01-11T14:09:01.838Z,18.97
2023-01-11T14:14:24.763Z,18.39
2023-01-11T14:19:32.685Z,18.68
2023-01-11T14:24:39.847Z,18.08
2023-01-11T14:30:04.617Z,18.31
2023-01-11T14:35:37.610Z,17.66
2023-01-11T14:41:10.409Z,17.76
2023-01-11T14:46:44.342Z,17.81
2023-01-11T14:51:55.626Z,17.59
2023-01-11T14:56:59.512Z,17.40
2023-01-11T15:02:27.855Z,18.19
2023-01-11T15:07:37.528Z,17.29
2023-01-11T15:12:41.519Z,17.11
2023-01-11T15:18:02.596Z,17.23
2023-01-11T15:23:07.456Z,16.97
2023-01-11T15:28:33.412Z,17.19
2023-01-11T15:33:46.541Z,16.80
2023-01-11T15:38:55.052Z,17.42
2023-01-11T15:44:08.706Z,17.11
2023-01-11T15:49:44.154Z,16.48
2023-01-11T15:55:18.409Z,16.63
2023-01-11T16:00:37.184Z,17.04
2023-01-11T16:05:44.004Z,16.97
2023-01-11T16:10:53.848Z,16.76
2023-01-11T16:16:07.079Z,17.10
2023-01-11T16:21:14.506Z,17.11
2023-01-11T16:26:21.820Z,17.32
2023-01-11T16:31:26.446Z,17.26
2023-01-11T16:36:29.883Z,17.11
2023-01-11T16:41:39.440Z,16.05
2023-01-11T16:47:08.526Z,16.45
2023-01-11T16:52:36.911Z,16.73
2023-01-11T16:57:44.470Z,16.90
2023-01-11T17:02:50.107Z,17.05
2023-01-11T17:07:53.457Z,16.90
2023-01-11T17:13:37.827Z,16.33
2023-01-11T17:18:42.411Z,15.25
2023-01-11T17:23:46.541Z,15.76
2023-01-11T17:28:53.943Z,15.79
2023-01-11T17:34:01.905Z,15.53
2023-01-11T17:39:06.872Z,15.65
2023-01-11T17:44:33.935Z,15.37
2023-01-11T17:49:37.991Z,15.58
2023-01-11T17:54:41.419Z,15.45
2023-01-11T17:59:46.140Z,15.02
2023-01-11T18:04:58.662Z,15.11
2023-01-11T18:10:03.743Z,15.28
2023-01-11T18:15:17.887Z,14.06
2023-01-11T18:20:40.356Z,14.62
2023-01-11T18:25:45.959Z,15.67
2023-01-11T18:30:54.092Z,15.21
2023-01-11T18:35:59.675Z,15.51
2023-01-11T18:41:28.297Z,15.47
2023-01-11T18:46:33.012Z,15.24
2023-01-11T18:51:39.463Z,15.14
2023-01-11T18:56:43.060Z,15.02
2023-01-11T19:01:59.064Z,15.74
2023-01-11T19:07:08.039Z,15.29
2023-01-11T19:12:11.355Z,15.37
2023-01-11T19:17:16.109Z,15.58
2023-01-11T19:22:21.134Z,15.08
2023-01-11T19:27:25.326Z,14.96
2023-01-11T19:32:30.191Z,15.01
2023-01-11T19:37:34.122Z,15.14
2023-01-11T19:42:38.218Z,14.64
2023-01-11T19:47:42.885Z,15.19
2023-01-11T19:52:46.787Z,15.17
2023-01-11T19:57:50.318Z,14.31
2023-01-11T20:02:55.072Z,15.28
2023-01-11T20:07:58.566Z,14.86
2023-01-11T20:13:01.993Z,14.55
2023-01-11T20:18:06.905Z,14.48
2023-01-11T20:23:10.314Z,14.43
2023-01-11T20:28:13.681Z,14.78
2023-01-11T20:33:18.865Z,14.43
2023-01-11T20:38:22.268Z,14.80
2023-01-11T20:43:25.625Z,14.68
2023-01-11T20:48:30.352Z,15.08
2023-01-11T20:53:33.704Z,14.84
2023-01-11T20:58:37.261Z,14.84
2023-01-11T21:03:41.932Z,14.94
2023-01-11T21:08:45.295Z,14.77
2023-01-11T21:13:48.628Z,14.78
2023-01-11T21:18:56.356Z,14.29
2023-01-11T21:24:01.253Z,14.42
2023-01-11T21:29:06.129Z,14.99
2023-01-11T21:34:11.168Z,14.51
2023-01-11T21:39:17.444Z,15.54
2023-01-11T21:44:23.545Z,14.78
2023-01-11T21:49:29.105Z,14.57
2023-01-11T21:54:32.647Z,14.53
2023-01-11T21:59:36.003Z,14.82
2023-01-11T22:04:40.613Z,14.62
2023-01-11T22:09:59.883Z,14.83
2023-01-11T22:15:08.309Z,15.54
2023-01-11T22:20:15.026Z,15.28
2023-01-11T22:25:18.400Z,15.90
2023-01-11T22:30:21.859Z,15.96
2023-01-11T22:35:26.682Z,15.73
2023-01-11T22:40:30.425Z,15.86
2023-01-11T22:45:33.942Z,15.44
2023-01-11T22:50:40.407Z,15.30
2023-01-11T22:55:43.854Z,15.61
2023-01-11T23:00:47.223Z,15.35
2023-01-11T23:05:51.869Z,16.01
2023-01-11T23:10:59.516Z,15.57
2023-01-11T23:16:02.918Z,16.45
2023-01-11T23:21:08.204Z,15.34
2023-01-11T23:26:12.671Z,15.45
2023-01-11T23:31:19.036Z,14.86
2023-01-11T23:36:25.520Z,15.09
2023-01-11T23:41:46.696Z,14.70
2023-01-11T23:47:08.604Z,14.83
2023-01-11T23:52:13.397Z,14.02
2023-01-11T23:57:17.816Z,15.10
